createdAt,value
2022-11-19T00:01:27.176Z,9.23
2022-11-19T00:03:55.269Z,10.07
2022-11-19T00:06:26.379Z,9.00
2022-11-19T00:08:54.326Z,9.93
2022-11-19T00:11:43.302Z,10.20
2022-11-19T00:14:13.891Z,10.13
2022-11-19T00:16:41.644Z,9.52
2022-11-19T00:19:11.204Z,9.45
2022-11-19T00:21:38.187Z,9.57
2022-11-19T00:24:05.790Z,9.77
2022-11-19T00:26:32.904Z,10.60
2022-11-19T00:28:59.940Z,9.20
2022-11-19T00:31:26.946Z,9.70
2022-11-19T00:33:54.943Z,10.35
2022-11-19T00:36:25.472Z,10.48
2022-11-19T00:38:52.566Z,10.30
2022-11-19T00:41:19.594Z,9.55
2022-11-19T00:43:49.897Z,10.15
2022-11-19T00:46:24.473Z,9.35
2022-11-19T00:48:54.689Z,10.40
2022-11-19T00:51:23.575Z,11.30
2022-11-19T00:53:51.061Z,9.23
2022-11-19T00:56:21.647Z,10.15
2022-11-19T00:58:49.997Z,10.65
2022-11-19T01:01:20.490Z,10.13
2022-11-19T01:03:48.194Z,9.82
2022-11-19T01:06:19.762Z,11.23
2022-11-19T01:08:49.149Z,10.77
2022-11-19T01:11:27.564Z,10.07
2022-11-19T01:13:54.834Z,10.60
2022-11-19T01:16:28.147Z,10.55
2022-11-19T01:18:55.689Z,10.13
2022-11-19T01:21:26.602Z,10.25
2022-11-19T01:23:53.918Z,10.18
2022-11-19T01:26:21.447Z,10.45
2022-11-19T01:28:48.589Z,10.27
2022-11-19T01:31:22.844Z,9.82
2022-11-19T01:33:50.445Z,9.30
2022-11-19T01:36:22.322Z,9.57
2022-11-19T01:38:51.122Z,8.93
2022-11-19T01:41:32.271Z,9.50
2022-11-19T01:44:07.091Z,9.88
2022-11-19T01:46:38.731Z,9.23
2022-11-19T01:49:16.748Z,9.80
2022-11-19T01:51:53.175Z,9.98
2022-11-19T01:54:35.143Z,10.25
2022-11-19T01:57:08.533Z,10.68
2022-11-19T01:59:36.519Z,9.60
2022-11-19T02:02:03.521Z,10.40
2022-11-19T02:04:31.573Z,9.88
2022-11-19T02:06:58.965Z,9.98
2022-11-19T02:09:29.190Z,10.60
2022-11-19T02:12:20.053Z,11.48
2022-11-19T02:15:17.543Z,10.73
2022-11-19T02:17:56.846Z,10.35
2022-11-19T02:20:53.561Z,10.93
2022-11-19T02:23:32.465Z,10.27
2022-11-19T02:26:17.457Z,10.75
2022-11-19T02:29:11.563Z,10.30
2022-11-19T02:31:57.514Z,9.80
2022-11-19T02:34:34.107Z,9.73
2022-11-19T02:37:21.982Z,8.80
2022-11-19T02:40:13.919Z,9.43
2022-11-19T02:43:13.491Z,9.75
2022-11-19T02:45:47.637Z,8.70
2022-11-19T02:48:30.124Z,11.48
2022-11-19T02:51:01.746Z,10.00
2022-11-19T02:53:29.716Z,10.57
2022-11-19T02:56:11.618Z,11.00
2022-11-19T02:59:06.028Z,10.02
2022-11-19T03:01:57.119Z,8.30
2022-11-19T03:04:29.782Z,10.38
2022-11-19T03:07:26.302Z,10.18
2022-11-19T03:09:57.704Z,10.07
2022-11-19T03:12:58.885Z,8.98
2022-11-19T03:15:53.350Z,9.48
2022-11-19T03:18:45.092Z,10.93
2022-11-19T03:21:24.117Z,10.80
2022-11-19T03:24:14.171Z,9.23
2022-11-19T03:27:02.762Z,10.10
2022-11-19T03:29:36.514Z,10.27
2022-11-19T03:32:13.011Z,10.48
2022-11-19T03:34:44.668Z,10.02
2022-11-19T03:37:16.210Z,9.07
2022-11-19T03:39:45.101Z,10.10
2022-11-19T03:42:16.028Z,9.80
2022-11-19T03:44:47.607Z,9.48
2022-11-19T03:47:25.992Z,9.05
2022-11-19T03:50:02.280Z,9.75
2022-11-19T03:52:29.508Z,9.80
2022-11-19T03:54:56.610Z,9.80
2022-11-19T03:57:26.972Z,10.45
2022-11-19T03:59:53.988Z,10.07
2022-11-19T04:02:21.232Z,9.68
2022-11-19T04:04:48.136Z,10.48
2022-11-19T04:07:22.015Z,10.25
2022-11-19T04:09:50.023Z,9.38
2022-11-19T04:12:22.673Z,10.57
2022-11-19T04:14:50.987Z,9.82
2022-11-19T04:17:19.227Z,9.68
2022-11-19T04:19:46.348Z,9.60
2022-11-19T04:22:13.320Z,9.75
2022-11-19T04:24:40.269Z,9.75
2022-11-19T04:27:07.172Z,10.02
2022-11-19T04:29:34.044Z,10.32
2022-11-19T04:32:00.960Z,10.15
2022-11-19T04:34:27.886Z,9.93
2022-11-19T04:36:54.767Z,10.13
2022-11-19T04:39:22.039Z,8.43
2022-11-19T04:41:49.079Z,9.00
2022-11-19T04:44:16.020Z,9.63
2022-11-19T04:46:43.121Z,10.10
2022-11-19T04:49:10.056Z,10.00
2022-11-19T04:51:36.960Z,9.65
2022-11-19T04:54:04.148Z,8.73
2022-11-19T04:56:31.027Z,9.95
2022-11-19T04:58:57.897Z,9.27
2022-11-19T05:01:24.965Z,9.20
2022-11-19T05:03:52.067Z,9.15
2022-11-19T05:06:19.349Z,9.20
2022-11-19T05:08:46.523Z,8.55
2022-11-19T05:11:13.486Z,8.07
2022-11-19T05:13:40.424Z,8.40
2022-11-19T05:16:07.834Z,9.25
2022-11-19T05:18:34.893Z,9.40
2022-11-19T05:21:01.832Z,9.52
2022-11-19T05:23:28.771Z,10.05
2022-11-19T05:25:55.660Z,8.93
2022-11-19T05:28:37.648Z,9.07
2022-11-19T05:31:06.568Z,9.68
2022-11-19T05:33:34.398Z,9.13
2022-11-19T05:36:02.533Z,9.70
2022-11-19T05:38:29.800Z,9.25
2022-11-19T05:40:56.715Z,9.23
2022-11-19T05:43:23.669Z,8.43
2022-11-19T05:45:50.666Z,8.98
2022-11-19T05:48:17.565Z,9.48
2022-11-19T05:50:44.491Z,10.02
2022-11-19T05:53:11.483Z,9.35
2022-11-19T05:55:38.385Z,8.85
2022-11-19T05:58:05.427Z,8.02
2022-11-19T06:00:32.355Z,10.35
2022-11-19T06:02:59.312Z,9.15
2022-11-19T06:05:26.299Z,7.85
2022-11-19T06:07:53.218Z,10.00
2022-11-19T06:10:20.161Z,9.23
2022-11-19T06:12:47.035Z,9.55
2022-11-19T06:15:14.990Z,10.30
2022-11-19T06:17:42.429Z,9.07
2022-11-19T06:20:11.155Z,9.90
2022-11-19T06:22:39.955Z,10.05
2022-11-19T06:25:07.930Z,10.20
2022-11-19T06:27:35.070Z,9.52
2022-11-19T06:30:02.597Z,10.10
2022-11-19T06:32:29.580Z,10.18
2022-11-19T06:34:56.647Z,9.10
2022-11-19T06:37:24.144Z,9.77
2022-11-19T06:39:51.130Z,9.45
2022-11-19T06:42:36.373Z,9.27
2022-11-19T06:45:14.115Z,8.93
2022-11-19T06:47:46.449Z,8.60
2022-11-19T06:50:13.490Z,9.77
2022-11-19T06:52:40.334Z,9.73
2022-11-19T06:55:07.754Z,9.43
2022-11-19T06:57:34.722Z,9.55
2022-11-19T07:00:01.578Z,9.88
2022-11-19T07:02:28.529Z,9.77
2022-11-19T07:04:55.400Z,8.93
2022-11-19T07:07:22.512Z,9.75
2022-11-19T07:09:49.552Z,10.20
2022-11-19T07:12:16.428Z,13.88
2022-11-19T07:14:43.308Z,10.93
2022-11-19T07:17:10.230Z,9.77
2022-11-19T07:19:37.129Z,9.73
2022-11-19T07:22:04.061Z,9.68
2022-11-19T07:24:30.985Z,9.95
2022-11-19T07:26:57.887Z,16.95
2022-11-19T07:29:24.857Z,47.45
2022-11-19T07:31:53.271Z,81.72
2022-11-19T07:34:20.882Z,34.42
2022-11-19T07:36:49.332Z,12.02
2022-11-19T07:39:17.080Z,11.57
2022-11-19T07:42:02.847Z,10.50
2022-11-19T07:44:32.045Z,10.07
2022-11-19T07:46:59.143Z,10.48
2022-11-19T07:49:26.879Z,10.20
2022-11-19T07:51:54.761Z,9.80
2022-11-19T07:54:21.816Z,10.50
2022-11-19T07:56:48.841Z,13.88
2022-11-19T07:59:15.744Z,30.67
2022-11-19T08:01:42.992Z,18.23
2022-11-19T08:04:09.919Z,14.27
2022-11-19T08:06:37.061Z,13.02
2022-11-19T08:09:05.534Z,11.73
2022-11-19T08:11:32.517Z,32.88
2022-11-19T08:14:03.012Z,23.15
2022-11-19T08:16:50.976Z,15.45
2022-11-19T08:19:18.998Z,13.32
2022-11-19T08:21:47.977Z,14.82
2022-11-19T08:24:19.730Z,14.38
2022-11-19T08:26:47.925Z,20.83
2022-11-19T08:29:18.284Z,15.98
2022-11-19T08:31:47.691Z,15.27
2022-11-19T08:34:15.961Z,16.55
2022-11-19T08:36:43.414Z,15.52
2022-11-19T08:39:11.205Z,14.52
2022-11-19T08:41:56.554Z,12.93
2022-11-19T08:44:23.714Z,12.52
2022-11-19T08:46:50.998Z,13.13
2022-11-19T08:49:18.045Z,13.07
2022-11-19T08:51:44.944Z,13.38
2022-11-19T08:54:13.160Z,13.00
2022-11-19T08:56:40.487Z,13.70
2022-11-19T08:59:07.399Z,13.57
2022-11-19T09:01:34.349Z,13.75
2022-11-19T09:04:01.207Z,14.32
2022-11-19T09:06:28.294Z,14.27
2022-11-19T09:08:55.359Z,13.75
2022-11-19T09:11:23.109Z,14.82
2022-11-19T09:13:50.063Z,12.80
2022-11-19T09:16:17.515Z,13.50
2022-11-19T09:18:44.528Z,15.93
2022-11-19T09:21:12.577Z,14.27
2022-11-19T09:23:42.515Z,14.75
2022-11-19T09:26:14.754Z,14.68
2022-11-19T09:28:43.384Z,14.77
2022-11-19T09:31:14.841Z,14.68
2022-11-19T09:33:45.684Z,15.70
2022-11-19T09:36:14.259Z,15.93
2022-11-19T09:38:41.986Z,14.10
2022-11-19T09:41:52.644Z,13.48
2022-11-19T09:44:57.121Z,13.73
2022-11-19T09:48:32.981Z,14.68
2022-11-19T09:51:19.477Z,13.32
2022-11-19T09:54:07.491Z,15.02
2022-11-19T09:56:51.124Z,15.32
2022-11-19T09:59:38.189Z,14.77
2022-11-19T10:02:18.805Z,15.35
2022-11-19T10:04:48.174Z,15.07
2022-11-19T10:07:39.277Z,16.23
2022-11-19T10:10:27.480Z,14.80
2022-11-19T10:13:17.658Z,14.32
2022-11-19T10:16:13.887Z,15.30
2022-11-19T10:22:29.182Z,13.73
2022-11-19T10:25:10.721Z,14.50
2022-11-19T10:27:50.900Z,15.88
2022-11-19T10:30:23.184Z,15.30
2022-11-19T10:33:00.607Z,14.90
2022-11-19T10:35:40.709Z,15.02
2022-11-19T10:38:24.057Z,13.50
2022-11-19T10:41:10.595Z,14.65
2022-11-19T10:43:52.048Z,15.20
2022-11-19T10:46:25.994Z,14.73
2022-11-19T10:48:58.948Z,13.75
2022-11-19T10:51:38.405Z,14.93
2022-11-19T10:54:24.205Z,14.07
2022-11-19T10:56:53.471Z,15.10
2022-11-19T10:59:26.295Z,14.13
2022-11-19T11:02:01.533Z,14.20
2022-11-19T11:07:07.501Z,12.90
2022-11-19T11:09:40.389Z,12.23
2022-11-19T11:13:02.071Z,12.57
2022-11-19T11:15:29.159Z,12.98
2022-11-19T11:18:09.056Z,11.20
2022-11-19T11:20:39.190Z,10.57
2022-11-19T11:23:27.543Z,11.13
2022-11-19T11:26:24.921Z,9.18
2022-11-19T11:29:08.016Z,8.57
2022-11-19T11:31:42.935Z,8.00
2022-11-19T11:34:43.732Z,9.50
2022-11-19T11:37:12.118Z,7.82
2022-11-19T11:39:44.359Z,7.75
2022-11-19T11:42:19.373Z,8.55
2022-11-19T11:45:00.250Z,7.90
2022-11-19T11:47:32.129Z,8.55
2022-11-19T11:50:23.313Z,8.73
2022-11-19T11:52:54.479Z,8.38
2022-11-19T11:55:24.628Z,5.63
2022-11-19T11:58:05.274Z,6.75
2022-11-19T12:00:46.361Z,6.30
2022-11-19T12:03:19.093Z,4.18
2022-11-19T12:06:03.635Z,3.72
2022-11-19T12:08:55.283Z,4.10
2022-11-19T12:11:49.739Z,4.82
2022-11-19T12:15:30.287Z,6.05
2022-11-19T12:18:43.298Z,5.75
2022-11-19T12:21:39.047Z,6.15
2022-11-19T12:24:31.122Z,6.28
2022-11-19T12:27:48.752Z,5.50
2022-11-19T12:30:23.394Z,4.45
2022-11-19T12:33:37.157Z,4.90
2022-11-19T12:36:22.759Z,5.47
2022-11-19T12:42:27.081Z,5.30
2022-11-19T12:45:20.867Z,6.07
2022-11-19T12:48:52.152Z,5.68
2022-11-19T12:51:22.287Z,6.40
2022-11-19T12:54:28.850Z,5.60
2022-11-19T12:57:20.897Z,6.43
2022-11-19T13:00:16.600Z,5.93
2022-11-19T13:03:08.910Z,5.88
2022-11-19T13:05:52.095Z,5.70
2022-11-19T13:09:00.175Z,4.80
2022-11-19T13:12:07.855Z,4.07
2022-11-19T13:15:17.506Z,3.88
2022-11-19T13:17:52.575Z,3.70
2022-11-19T13:20:49.314Z,4.25
2022-11-19T13:23:45.276Z,4.07
2022-11-19T13:26:23.544Z,4.07
2022-11-19T13:29:22.376Z,4.05
2022-11-19T13:32:41.009Z,3.63
2022-11-19T13:35:18.636Z,4.00
2022-11-19T13:38:18.063Z,3.70
2022-11-19T13:41:15.618Z,5.13
2022-11-19T13:44:02.312Z,4.78
2022-11-19T13:46:35.615Z,4.68
2022-11-19T13:49:13.734Z,4.85
2022-11-19T13:51:53.956Z,4.97
2022-11-19T13:54:35.139Z,5.05
2022-11-19T13:57:04.449Z,5.43
2022-11-19T13:59:47.252Z,5.30
2022-11-19T14:02:48.646Z,5.00
2022-11-19T14:06:11.766Z,4.68
2022-11-19T14:08:43.656Z,4.97
2022-11-19T14:11:43.735Z,4.93
2022-11-19T14:15:17.299Z,6.50
2022-11-19T14:18:38.095Z,5.40
2022-11-19T14:21:42.660Z,5.75
2022-11-19T14:24:43.199Z,6.88
2022-11-19T14:27:26.869Z,5.65
2022-11-19T14:30:18.803Z,6.22
2022-11-19T14:32:52.484Z,6.78
2022-11-19T14:35:39.481Z,6.22
2022-11-19T14:38:32.848Z,7.40
2022-11-19T14:41:14.442Z,6.47
2022-11-19T14:44:10.831Z,6.60
2022-11-19T14:46:45.469Z,6.65
2022-11-19T14:49:24.229Z,6.18
2022-11-19T14:51:55.361Z,7.28
2022-11-19T14:54:39.582Z,6.28
2022-11-19T15:21:55.580Z,7.13
2022-11-19T15:25:02.554Z,6.85
2022-11-19T15:27:56.145Z,6.07
2022-11-19T15:31:06.374Z,6.07
2022-11-19T15:33:47.831Z,5.63
2022-11-19T15:40:32.452Z,6.43
2022-11-19T15:43:35.812Z,9.18
2022-11-19T15:46:32.977Z,10.38
2022-11-19T15:49:39.316Z,13.05
2022-11-19T15:52:37.851Z,12.68
2022-11-19T15:55:28.951Z,9.68
2022-11-19T15:58:21.806Z,9.48
2022-11-19T16:00:51.726Z,6.97
2022-11-19T16:03:20.307Z,7.93
2022-11-19T16:06:03.626Z,6.13
2022-11-19T16:08:31.757Z,5.82
2022-11-19T16:11:20.508Z,5.88
2022-11-19T16:14:13.422Z,6.07
2022-11-19T16:17:01.462Z,5.70
2022-11-19T16:19:31.217Z,6.78
2022-11-19T16:22:06.729Z,6.40
2022-11-19T16:24:55.709Z,6.22
2022-11-19T16:27:25.130Z,6.78
2022-11-19T16:29:52.297Z,6.60
2022-11-19T16:32:22.283Z,7.38
2022-11-19T16:34:49.711Z,6.28
2022-11-19T16:37:21.542Z,6.05
2022-11-19T16:39:52.705Z,6.32
2022-11-19T16:42:26.791Z,6.93
2022-11-19T16:45:27.226Z,6.88
2022-11-19T16:48:02.485Z,6.75
2022-11-19T16:50:42.350Z,7.80
2022-11-19T16:53:12.315Z,7.10
2022-11-19T16:55:42.996Z,7.38
2022-11-19T16:58:17.892Z,6.55
2022-11-19T17:00:59.239Z,7.45
2022-11-19T17:03:36.414Z,7.50
2022-11-19T17:06:05.842Z,8.70
2022-11-19T17:08:36.829Z,7.78
2022-11-19T17:11:39.262Z,7.40
2022-11-19T17:14:35.532Z,6.72
2022-11-19T17:19:36.215Z,6.68
2022-11-19T17:22:26.688Z,6.63
2022-11-19T17:24:53.869Z,6.63
2022-11-19T17:27:36.796Z,7.05
2022-11-19T17:30:30.277Z,6.57
2022-11-19T17:33:03.758Z,7.25
2022-11-19T17:35:42.398Z,6.60
2022-11-19T17:38:16.356Z,6.70
2022-11-19T17:40:56.490Z,6.82
2022-11-19T17:43:54.547Z,6.25
2022-11-19T17:46:24.056Z,6.72
2022-11-19T17:48:52.643Z,7.07
2022-11-19T17:51:23.072Z,8.25
2022-11-19T17:53:52.072Z,6.93
2022-11-19T17:56:30.619Z,7.00
2022-11-19T17:58:59.603Z,7.70
2022-11-19T18:01:26.658Z,8.60
2022-11-19T18:03:56.442Z,8.90
2022-11-19T18:06:23.353Z,9.02
2022-11-19T18:08:50.241Z,7.40
2022-11-19T18:11:20.930Z,9.25
2022-11-19T18:13:51.861Z,7.65
2022-11-19T18:16:25.132Z,9.50
2022-11-19T18:18:53.765Z,8.77
2022-11-19T18:21:23.925Z,7.88
2022-11-19T18:23:52.177Z,8.98
2022-11-19T18:26:22.518Z,9.68
2022-11-19T18:28:49.917Z,9.35
2022-11-19T18:31:26.690Z,9.00
2022-11-19T18:33:55.984Z,9.70
2022-11-19T18:36:25.211Z,9.30
2022-11-19T18:38:52.968Z,10.68
2022-11-19T18:41:20.105Z,10.13
2022-11-19T18:44:05.900Z,10.32
2022-11-19T18:46:32.983Z,10.13
2022-11-19T18:49:00.050Z,10.48
2022-11-19T18:51:31.046Z,10.85
2022-11-19T18:53:58.166Z,10.30
2022-11-19T18:56:25.451Z,9.55
2022-11-19T18:58:52.508Z,9.18
2022-11-19T19:01:19.806Z,9.88
2022-11-19T19:03:47.470Z,10.05
2022-11-19T19:06:15.521Z,10.60
2022-11-19T19:08:42.697Z,11.75
2022-11-19T19:11:28.100Z,11.02
2022-11-19T19:13:55.018Z,13.00
2022-11-19T19:16:22.859Z,13.25
2022-11-19T19:18:49.973Z,12.25
2022-11-19T19:21:20.543Z,13.45
2022-11-19T19:23:48.377Z,15.40
2022-11-19T19:26:18.306Z,15.57
2022-11-19T19:28:50.547Z,15.02
2022-11-19T19:31:21.603Z,14.23
2022-11-19T19:33:49.069Z,15.98
2022-11-19T19:36:17.991Z,17.95
2022-11-19T19:38:45.128Z,17.60
2022-11-19T19:41:21.080Z,15.57
2022-11-19T19:43:49.577Z,14.27
2022-11-19T19:46:20.464Z,14.00
2022-11-19T19:48:54.373Z,14.85
2022-11-19T19:51:26.121Z,14.43
2022-11-19T19:53:54.026Z,16.83
2022-11-19T19:56:32.733Z,17.35
2022-11-19T19:59:01.686Z,16.40
2022-11-19T20:01:32.979Z,15.77
2022-11-19T20:04:11.583Z,15.75
2022-11-19T20:06:45.174Z,15.70
2022-11-19T20:09:12.386Z,16.85
2022-11-19T20:11:39.373Z,15.80
2022-11-19T20:14:07.061Z,15.85
2022-11-19T20:16:38.539Z,16.25
2022-11-19T20:19:07.452Z,16.27
2022-11-19T20:21:36.287Z,17.17
2022-11-19T20:24:11.500Z,17.90
2022-11-19T20:26:40.318Z,18.85
2022-11-19T20:29:11.618Z,18.60
2022-11-19T20:31:38.935Z,20.33
2022-11-19T20:34:06.666Z,19.58
2022-11-19T20:36:35.630Z,19.27
2022-11-19T20:39:03.623Z,20.33
2022-11-19T20:41:48.972Z,17.85
2022-11-19T20:44:20.018Z,19.83
2022-11-19T20:47:03.022Z,19.63
2022-11-19T20:49:39.320Z,18.67
2022-11-19T20:52:07.963Z,18.50
2022-11-19T20:54:35.519Z,18.00
2022-11-19T20:57:02.523Z,17.42
2022-11-19T20:59:30.443Z,17.88
2022-11-19T21:01:57.813Z,17.58
2022-11-19T21:04:27.807Z,18.55
2022-11-19T21:06:54.784Z,18.40
2022-11-19T21:09:22.263Z,19.20
2022-11-19T21:11:49.482Z,18.33
2022-11-19T21:14:16.608Z,17.75
2022-11-19T21:16:43.869Z,19.75
2022-11-19T21:19:12.389Z,18.77
2022-11-19T21:21:39.312Z,19.67
2022-11-19T21:24:07.019Z,19.40
2022-11-19T21:26:34.244Z,17.52
2022-11-19T21:29:01.220Z,18.48
2022-11-19T21:31:43.926Z,19.48
2022-11-19T21:34:13.074Z,17.75
2022-11-19T21:36:41.949Z,18.02
2022-11-19T21:39:10.470Z,19.48
2022-11-19T21:41:37.794Z,18.13
2022-11-19T21:44:05.424Z,18.45
2022-11-19T21:46:33.431Z,18.30
2022-11-19T21:49:00.722Z,17.20
2022-11-19T21:51:27.625Z,18.63
2022-11-19T21:53:56.749Z,17.45
2022-11-19T21:56:25.703Z,16.88
2022-11-19T21:58:52.811Z,17.83
2022-11-19T22:01:19.979Z,17.00
2022-11-19T22:03:47.381Z,16.27
2022-11-19T22:06:14.708Z,16.20
2022-11-19T22:08:42.766Z,19.20
2022-11-19T22:11:30.520Z,16.23
2022-11-19T22:14:04.912Z,17.98
2022-11-19T22:16:38.650Z,17.00
2022-11-19T22:19:06.539Z,15.90
2022-11-19T22:21:34.410Z,15.32
2022-11-19T22:24:01.652Z,15.02
2022-11-19T22:26:28.687Z,15.63
2022-11-19T22:28:55.862Z,16.08
2022-11-19T22:31:24.439Z,16.67
2022-11-19T22:33:52.286Z,15.48
2022-11-19T22:36:21.978Z,16.27
2022-11-19T22:38:50.361Z,17.00
2022-11-19T22:41:20.596Z,17.10
2022-11-19T22:43:48.150Z,15.05
2022-11-19T22:46:15.953Z,15.77
2022-11-19T22:48:43.372Z,16.45
2022-11-19T22:51:15.874Z,15.75
2022-11-19T22:53:43.809Z,15.32
2022-11-19T22:56:14.496Z,14.90
2022-11-19T22:58:41.893Z,15.43
2022-11-19T23:01:18.008Z,13.05
2022-11-19T23:03:46.192Z,14.98
2022-11-19T23:06:13.683Z,14.15
2022-11-19T23:08:40.836Z,15.32
2022-11-19T23:11:08.144Z,14.82
2022-11-19T23:13:39.088Z,15.55
2022-11-19T23:16:06.251Z,15.30
2022-11-19T23:18:45.846Z,14.13
2022-11-19T23:21:16.929Z,14.13
2022-11-19T23:23:44.356Z,14.73
2022-11-19T23:26:15.408Z,13.50
2022-11-19T23:28:43.149Z,13.18
2022-11-19T23:31:16.971Z,13.85
2022-11-19T23:33:44.853Z,14.30
2022-11-19T23:36:15.488Z,13.98
2022-11-19T23:38:43.744Z,13.75
2022-11-19T23:41:14.004Z,13.82
2022-11-19T23:43:42.189Z,12.32
2022-11-19T23:46:24.471Z,13.90
2022-11-19T23:48:52.074Z,14.73
2022-11-19T23:51:22.884Z,14.00
2022-11-19T23:53:49.965Z,14.98
2022-11-19T23:56:19.637Z,13.63
2022-11-19T23:58:46.920Z,15.55
